Time;durP1;ratioP1;P1;durP2;ratioP2;P2;SDS_P1;SDS_P2;PMS_P1;PMS_P2;Temp;Humidity;BMP_temperature;BMP_pressure;BME280_temperature;BME280_humidity;BME280_pressure;Samples;Min_cycle;Max_cycle;Signal;HPM_P1;HPM_P2
2021/04/26 00:00:06;;;;;;;1.30;1.20;;;;;;;4.52;69.53;93500.78;5089140;28;20416;-41
2021/04/26 00:02:32;;;;;;;6.03;2.63;;;;;;;4.63;69.83;93491.75;5088981;28;20066;-40
2021/04/26 00:04:57;;;;;;;1.58;1.48;;;;;;;4.70;69.68;93504.13;5089015;28;20680;-40
2021/04/26 00:07:23;;;;;;;4.18;3.53;;;;;;;4.54;69.82;93501.00;5088796;28;20139;-43
2021/04/26 00:09:48;;;;;;;4.68;2.17;;;;;;;4.55;69.58;93494.28;5088855;28;20033;-41
2021/04/26 00:12:13;;;;;;;2.05;1.95;;;;;;;4.57;69.21;93496.50;5088877;28;20031;-41
2021/04/26 00:14:39;;;;;;;3.03;1.45;;;;;;;4.36;69.98;93490.69;5088714;28;20020;-42
2021/04/26 00:17:04;;;;;;;0.73;0.73;;;;;;;4.39;70.53;93497.13;5088893;28;20032;-40
2021/04/26 00:19:30;;;;;;;2.42;2.28;;;;;;;4.46;70.19;93497.31;5092452;28;20024;-39
2021/04/26 00:21:55;;;;;;;2.15;2.00;;;;;;;4.48;70.08;93499.56;5092447;28;20103;-39
2021/04/26 00:24:21;;;;;;;0.60;0.60;;;;;;;4.53;69.74;93502.25;5076595;28;20059;-39
2021/04/26 00:26:46;;;;;;;8.50;1.55;;;;;;;4.19;70.19;93495.53;5071603;28;20020;-39
2021/04/26 00:29:12;;;;;;;0.77;0.77;;;;;;;4.08;70.06;93494.84;5053937;28;20027;-39
2021/04/26 00:31:38;;;;;;;0.70;0.70;;;;;;;4.01;70.57;93489.91;5072260;28;20025;-39
2021/04/26 00:34:04;;;;;;;0.50;0.50;;;;;;;4.11;70.67;93496.56;5071745;28;20020;-39
2021/04/26 00:36:29;;;;;;;1.13;1.05;;;;;;;4.16;70.68;93502.00;5071847;28;20413;-41
2021/04/26 00:38:54;;;;;;;1.05;0.95;;;;;;;4.22;69.71;93499.97;5072172;28;20021;-42
2021/04/26 00:41:20;;;;;;;1.02;0.88;;;;;;;4.02;69.75;93497.63;5071975;28;20558;-39
2021/04/26 00:43:45;;;;;;;1.70;1.63;;;;;;;4.15;69.33;93514.19;5071828;28;20051;-38
2021/04/26 00:46:11;;;;;;;1.38;1.27;;;;;;;4.09;69.26;93507.28;5054920;28;20027;-39
2021/04/26 00:48:37;;;;;;;1.33;1.33;;;;;;;3.98;69.32;93510.06;5074748;28;20058;-39
2021/04/26 00:51:03;;;;;;;1.88;1.77;;;;;;;3.93;69.70;93502.63;5092045;28;20023;-38
2021/04/26 00:53:28;;;;;;;1.80;1.70;;;;;;;3.72;70.25;93494.78;5092015;28;20154;-38
2021/04/26 00:55:54;;;;;;;3.20;1.75;;;;;;;3.48;71.71;93507.53;5073969;28;20023;-39
2021/04/26 00:58:19;;;;;;;6.72;1.25;;;;;;;3.69;70.87;93508.69;5091565;28;20082;-39
2021/04/26 01:00:45;;;;;;;0.55;0.55;;;;;;;3.36;71.43;93493.19;5091562;28;20020;-38
2021/04/26 01:03:10;;;;;;;2.17;1.95;;;;;;;3.47;71.23;93512.25;5075618;28;20028;-38
2021/04/26 01:05:36;;;;;;;1.15;0.93;;;;;;;3.63;71.78;93511.47;5071628;28;20405;-39
2021/04/26 01:08:03;;;;;;;0.47;0.47;;;;;;;3.74;69.96;93502.47;5090311;28;20044;-38
2021/04/26 01:10:31;;;;;;;0.63;0.63;;;;;;;3.78;69.91;93522.81;5076735;28;20089;-38
2021/04/26 01:13:27;;;;;;;0.22;0.22;;;;;;;3.84;68.64;93525.50;5091048;28;20073;-38
2021/04/26 01:16:12;;;;;;;0.40;0.40;;;;;;;3.96;68.61;93523.47;5091278;28;20042;-39
2021/04/26 01:18:52;;;;;;;2.05;1.48;;;;;;;3.84;69.65;93520.03;5091280;28;20409;-40
2021/04/26 01:21:46;;;;;;;0.30;0.30;;;;;;;3.75;69.32;93528.53;5091124;28;20443;-40
2021/04/26 01:24:43;;;;;;;0.50;0.50;;;;;;;3.48;70.68;93526.66;5091352;28;20441;-40
2021/04/26 01:27:17;;;;;;;1.65;1.55;;;;;;;3.69;69.89;93530.53;5052042;28;20032;-41
2021/04/26 01:30:03;;;;;;;0.98;0.98;;;;;;;3.60;68.85;93523.38;5080189;28;20029;-41
2021/04/26 01:32:51;;;;;;;3.20;2.78;;;;;;;3.68;69.98;93515.41;5071009;28;20031;-37
2021/04/26 01:35:19;;;;;;;1.70;1.58;;;;;;;3.85;68.93;93521.53;5052933;28;20029;-38
2021/04/26 01:37:48;;;;;;;0.47;0.47;;;;;;;3.75;68.43;93518.34;5053527;28;20032;-38
2021/04/26 01:40:14;;;;;;;3.05;0.75;;;;;;;3.59;69.08;93513.72;5060970;28;20081;-41
2021/04/26 01:42:42;;;;;;;1.58;1.48;;;;;;;3.58;70.31;93516.91;5090725;28;20028;-40
2021/04/26 01:45:10;;;;;;;0.70;0.70;;;;;;;3.61;69.69;93511.22;5065642;28;20051;-41
2021/04/26 01:47:36;;;;;;;2.80;0.93;;;;;;;3.49;68.79;93512.50;5066918;28;20408;-40
2021/04/26 01:50:04;;;;;;;2.90;2.70;;;;;;;3.70;69.66;93510.91;5056700;28;20048;-40
2021/04/26 01:52:30;;;;;;;1.67;1.60;;;;;;;3.80;68.31;93509.41;5070353;28;20017;-39
2021/04/26 01:54:56;;;;;;;1.27;1.27;;;;;;;3.76;68.50;93508.91;5052549;28;20070;-39
2021/04/26 01:57:22;;;;;;;1.30;1.30;;;;;;;3.76;69.01;93494.53;5052332;28;20515;-39
2021/04/26 01:59:48;;;;;;;2.20;2.05;;;;;;;3.79;68.19;93498.97;5070368;28;20032;-39
2021/04/26 02:02:16;;;;;;;1.25;1.25;;;;;;;3.44;69.38;93502.34;5070212;28;20467;-39
2021/04/26 02:04:42;;;;;;;0.65;0.65;;;;;;;3.16;69.96;93503.66;5052474;28;20027;-38
2021/04/26 02:07:09;;;;;;;0.70;0.70;;;;;;;2.85;70.92;93499.25;5070308;28;20044;-39
2021/04/26 02:09:40;;;;;;;0.55;0.55;;;;;;;2.81;71.39;93499.50;5068938;28;20028;-39
2021/04/26 02:12:07;;;;;;;0.40;0.40;;;;;;;2.83;72.10;93505.19;5052841;28;20031;-39
2021/04/26 02:14:33;;;;;;;0.20;0.20;;;;;;;2.81;71.18;93507.69;5070202;28;20033;-38
2021/04/26 02:16:59;;;;;;;0.93;0.93;;;;;;;3.10;71.13;93513.84;5052124;28;20556;-38
2021/04/26 02:19:24;;;;;;;0.30;0.30;;;;;;;3.28;70.30;93507.84;5070175;28;20023;-39
2021/04/26 02:21:50;;;;;;;0.52;0.52;;;;;;;3.20;68.97;93502.16;5069745;28;20084;-39
2021/04/26 02:24:15;;;;;;;0.85;0.85;;;;;;;2.80;70.19;93489.81;5069695;28;20027;-39
2021/04/26 02:26:40;;;;;;;0.38;0.38;;;;;;;2.88;70.53;93492.81;5069684;28;20027;-39
2021/04/26 02:29:07;;;;;;;0.70;0.70;;;;;;;2.89;69.86;93495.03;5070039;28;20028;-40
2021/04/26 02:31:34;;;;;;;0.55;0.55;;;;;;;3.01;69.90;93495.75;5069666;28;20079;-40
2021/04/26 02:34:26;;;;;;;0.45;0.45;;;;;;;2.94;70.79;93499.00;5069803;28;20108;-42
2021/04/26 02:36:57;;;;;;;0.30;0.30;;;;;;;3.01;69.49;93507.41;5042869;28;20535;-39
2021/04/26 02:39:23;;;;;;;1.30;1.02;;;;;;;3.08;70.42;93512.34;5050929;28;20470;-39
2021/04/26 02:41:49;;;;;;;0.35;0.35;;;;;;;2.88;70.00;93511.91;5059205;28;20062;-41
2021/04/26 02:44:20;;;;;;;0.95;0.95;;;;;;;2.75;70.73;93506.91;5071453;28;20032;-39
2021/04/26 02:46:46;;;;;;;0.45;0.45;;;;;;;2.56;71.34;93502.47;5090037;28;20024;-41
2021/04/26 02:49:13;;;;;;;0.30;0.30;;;;;;;2.51;71.85;93500.50;5061999;28;20052;-40
2021/04/26 02:51:39;;;;;;;0.45;0.45;;;;;;;2.68;71.06;93507.44;5068510;28;20092;-40
2021/04/26 02:54:05;;;;;;;0.38;0.38;;;;;;;2.87;70.23;93508.41;5068820;28;20392;-40
2021/04/26 02:56:35;;;;;;;1.83;1.73;;;;;;;2.89;69.92;93505.94;5050298;28;20478;-39
2021/04/26 02:59:01;;;;;;;4.93;1.55;;;;;;;2.98;69.90;93510.38;5067849;28;20489;-40
2021/04/26 03:01:27;;;;;;;0.85;0.85;;;;;;;2.76;70.65;93508.41;5068135;28;20017;-40
2021/04/26 03:03:53;;;;;;;2.45;0.75;;;;;;;2.66;70.39;93487.38;5049816;28;20111;-40
2021/04/26 03:06:19;;;;;;;1.42;1.33;;;;;;;2.89;69.79;93511.38;5069667;28;20110;-40
2021/04/26 03:08:46;;;;;;;0.60;0.60;;;;;;;3.01;69.74;93509.41;5047963;28;20521;-41
2021/04/26 03:11:13;;;;;;;0.98;0.98;;;;;;;3.00;69.45;93503.19;5048348;28;20383;-41
2021/04/26 03:13:39;;;;;;;2.42;1.33;;;;;;;2.83;70.45;93510.66;5049532;28;20048;-40
2021/04/26 03:16:05;;;;;;;0.40;0.40;;;;;;;2.87;70.36;93513.88;5049139;28;20040;-40
2021/04/26 03:18:33;;;;;;;1.30;1.30;;;;;;;2.63;70.90;93513.63;5047921;28;20031;-42
2021/04/26 03:20:59;;;;;;;0.40;0.40;;;;;;;2.53;71.08;93517.09;5049429;28;20460;-40
2021/04/26 03:23:26;;;;;;;0.30;0.30;;;;;;;2.56;69.98;93516.84;5047941;28;20029;-42
2021/04/26 03:25:55;;;;;;;1.30;1.17;;;;;;;2.48;70.57;93526.75;5049352;28;20028;-41
2021/04/26 03:28:21;;;;;;;0.47;0.47;;;;;;;2.29;70.51;93528.47;5048942;28;20025;-40
2021/04/26 03:30:47;;;;;;;0.68;0.68;;;;;;;2.45;70.57;93532.47;5047909;28;20421;-40
2021/04/26 03:33:14;;;;;;;1.15;1.13;;;;;;;2.26;71.96;93543.81;5049203;28;20021;-41
2021/04/26 03:35:39;;;;;;;1.20;1.10;;;;;;;2.51;70.27;93531.22;5047790;28;20508;-40
2021/04/26 03:38:05;;;;;;;0.70;0.70;;;;;;;2.57;70.21;93551.06;5056964;28;20035;-39
2021/04/26 03:40:31;;;;;;;0.68;0.68;;;;;;;2.56;70.34;93546.06;5056983;28;20108;-40
2021/04/26 03:42:59;;;;;;;1.38;1.35;;;;;;;2.55;70.47;93544.59;5048925;28;20028;-40
2021/04/26 03:45:26;;;;;;;1.90;1.80;;;;;;;2.61;70.56;93548.81;5048797;28;20025;-40
2021/04/26 03:47:52;;;;;;;3.50;3.30;;;;;;;2.44;70.81;93542.63;5048883;28;20179;-40
2021/04/26 03:50:19;;;;;;;1.95;0.77;;;;;;;2.50;70.98;93556.22;5048557;28;20112;-38
2021/04/26 03:52:45;;;;;;;2.38;1.70;;;;;;;2.45;71.20;93546.09;5051543;28;20493;-38
2021/04/26 03:55:13;;;;;;;1.15;1.15;;;;;;;2.40;71.16;93544.84;5052696;28;20099;-38
2021/04/26 03:57:39;;;;;;;4.65;2.53;;;;;;;2.38;71.23;93536.41;5052717;28;20551;-41
2021/04/26 04:00:09;;;;;;;0.73;0.73;;;;;;;2.28;72.20;93543.31;5052847;28;20062;-41
2021/04/26 04:02:35;;;;;;;1.95;0.73;;;;;;;2.39;71.52;93556.97;5051191;28;20033;-39
2021/04/26 04:05:01;;;;;;;0.85;0.85;;;;;;;2.41;70.73;93553.75;5051559;28;20094;-41
2021/04/26 04:07:26;;;;;;;0.55;0.55;;;;;;;2.34;70.56;93548.78;5054654;28;20136;-42
2021/04/26 04:09:52;;;;;;;0.30;0.30;;;;;;;2.65;70.68;93557.50;5072812;28;20025;-43
2021/04/26 04:12:18;;;;;;;0.68;0.68;;;;;;;2.98;69.02;93562.19;5072553;28;20024;-41
2021/04/26 04:14:43;;;;;;;0.93;0.93;;;;;;;3.17;68.32;93557.72;5072597;28;20511;-40
2021/04/26 04:17:09;;;;;;;1.58;1.50;;;;;;;3.31;68.66;93550.50;5054418;28;20051;-40
2021/04/26 04:19:34;;;;;;;0.55;0.55;;;;;;;3.40;67.63;93563.88;5072477;28;20154;-42
2021/04/26 04:22:00;;;;;;;0.40;0.40;;;;;;;3.35;67.93;93556.44;5072111;28;20493;-42
2021/04/26 04:24:26;;;;;;;1.77;1.52;;;;;;;3.10;68.71;93557.50;5072307;28;20031;-42
2021/04/26 04:26:51;;;;;;;0.50;0.50;;;;;;;3.04;69.35;93530.94;5072238;28;20625;-41
2021/04/26 04:29:17;;;;;;;0.70;0.70;;;;;;;3.81;68.55;93562.03;5071999;28;20021;-39
2021/04/26 04:31:42;;;;;;;0.52;0.52;;;;;;;4.45;67.00;93566.94;5072228;28;20181;-38
2021/04/26 04:34:08;;;;;;;0.77;0.77;;;;;;;4.96;64.12;93568.06;5079580;28;20071;-39
2021/04/26 04:36:33;;;;;;;1.67;1.58;;;;;;;5.07;63.46;93567.22;5092017;28;20024;-41
2021/04/26 04:38:59;;;;;;;1.63;1.48;;;;;;;5.63;62.15;93565.44;5092345;28;20036;-40
2021/04/26 04:41:24;;;;;;;1.10;1.10;;;;;;;6.23;60.22;93566.06;5072399;28;20031;-39
2021/04/26 04:43:50;;;;;;;2.22;2.13;;;;;;;6.45;59.14;93570.50;5069917;28;20023;-39
2021/04/26 04:46:17;;;;;;;1.95;1.85;;;;;;;6.33;58.73;93558.19;5069716;28;20032;-39
2021/04/26 04:48:43;;;;;;;1.58;1.48;;;;;;;6.51;58.68;93568.41;5069433;28;20074;-39
2021/04/26 04:51:08;;;;;;;2.25;2.00;;;;;;;6.52;58.65;93578.16;5069938;28;20025;-40
2021/04/26 04:53:34;;;;;;;2.45;2.25;;;;;;;6.51;58.97;93577.41;5070096;28;20484;-40
2021/04/26 04:55:59;;;;;;;5.22;4.45;;;;;;;6.78;58.79;93581.00;5069711;28;20400;-40
2021/04/26 04:58:24;;;;;;;1.63;1.60;;;;;;;6.88;58.46;93574.63;5069337;28;20082;-40
2021/04/26 05:00:50;;;;;;;0.65;0.65;;;;;;;6.59;60.10;93578.28;5069307;28;20658;-39
2021/04/26 05:03:15;;;;;;;1.23;0.80;;;;;;;6.45;60.36;93584.22;5068573;28;20025;-39
2021/04/26 05:05:41;;;;;;;1.80;1.70;;;;;;;6.25;61.58;93592.94;5068051;28;20043;-39
2021/04/26 05:08:06;;;;;;;3.72;2.08;;;;;;;6.37;61.91;93586.78;5068751;28;20060;-39
2021/04/26 05:10:32;;;;;;;1.27;1.27;;;;;;;6.55;61.29;93582.56;5068792;28;20030;-39
2021/04/26 05:12:57;;;;;;;0.95;0.95;;;;;;;6.78;60.79;93589.97;5071044;28;20111;-39
2021/04/26 05:15:23;;;;;;;0.80;0.80;;;;;;;6.99;60.60;93581.94;5085079;28;20039;-39
2021/04/26 05:17:48;;;;;;;2.92;2.70;;;;;;;7.22;60.08;93571.34;5089468;28;20757;-40
2021/04/26 05:20:14;;;;;;;2.83;2.40;;;;;;;7.35;60.06;93582.38;5089396;28;20115;-39
2021/04/26 05:22:40;;;;;;;2.50;2.33;;;;;;;7.41;60.57;93575.50;5070788;28;20042;-40
2021/04/26 05:25:08;;;;;;;1.75;1.65;;;;;;;7.51;60.29;93578.63;5089366;28;20031;-41
2021/04/26 05:27:35;;;;;;;1.00;0.68;;;;;;;7.54;60.12;93569.31;5088886;28;20512;-39
2021/04/26 05:30:01;;;;;;;0.70;0.70;;;;;;;7.60;60.20;93559.69;5083791;28;20166;-39
2021/04/26 05:32:26;;;;;;;1.88;1.77;;;;;;;7.73;61.75;93571.97;5068756;28;20028;-39
2021/04/26 05:34:51;;;;;;;1.38;1.27;;;;;;;7.87;60.46;93576.22;5068946;28;20066;-39
2021/04/26 05:37:17;;;;;;;1.05;1.05;;;;;;;8.20;60.16;93578.31;5069090;28;20803;-40
2021/04/26 05:39:42;;;;;;;0.85;0.85;;;;;;;8.68;59.14;93591.63;5068622;28;20020;-41
2021/04/26 05:42:08;;;;;;;0.73;0.73;;;;;;;9.21;57.44;93588.66;5068218;28;20074;-41
2021/04/26 05:44:34;;;;;;;1.35;1.27;;;;;;;9.73;57.05;93580.88;5068784;28;20142;-41
2021/04/26 05:46:59;;;;;;;2.50;1.63;;;;;;;10.27;55.59;93585.47;5068991;28;20021;-42
2021/04/26 05:49:25;;;;;;;0.80;0.80;;;;;;;10.84;53.80;93585.38;5083642;28;20020;-41
2021/04/26 05:51:50;;;;;;;0.63;0.63;;;;;;;11.43;52.75;93582.00;5088298;28;20601;-43
2021/04/26 05:54:16;;;;;;;1.67;1.58;;;;;;;11.81;50.33;93576.53;5088473;28;20027;-41
2021/04/26 05:56:41;;;;;;;0.88;0.85;;;;;;;11.95;48.68;93572.28;5068355;28;20024;-42
2021/04/26 05:59:06;;;;;;;1.67;1.58;;;;;;;12.14;47.60;93572.66;5068100;28;20033;-40
2021/04/26 06:01:32;;;;;;;1.08;0.98;;;;;;;12.17;48.68;93568.75;5068058;28;20028;-39
2021/04/26 06:03:57;;;;;;;1.50;1.40;;;;;;;11.91;49.21;93562.91;5068223;28;20077;-39
2021/04/26 06:06:23;;;;;;;0.82;0.43;;;;;;;12.07;48.40;93561.56;5067260;28;20081;-39
2021/04/26 06:08:48;;;;;;;0.70;0.70;;;;;;;12.02;48.33;93562.50;5068191;28;20193;-39
2021/04/26 06:11:14;;;;;;;1.08;1.08;;;;;;;12.68;46.85;93540.75;5068386;28;20036;-39
2021/04/26 06:13:39;;;;;;;2.15;1.77;;;;;;;13.00;44.13;93548.34;5067863;28;20027;-40
2021/04/26 06:16:06;;;;;;;1.08;0.98;;;;;;;14.34;41.10;93542.34;5067868;28;20051;-40
2021/04/26 06:18:32;;;;;;;1.20;1.15;;;;;;;15.20;38.33;93550.63;5067432;28;20078;-40
2021/04/26 06:20:58;;;;;;;1.38;0.40;;;;;;;16.18;38.50;93557.47;5067997;28;20032;-40
2021/04/26 06:23:23;;;;;;;1.23;0.77;;;;;;;16.95;35.77;93552.00;5066998;28;20032;-41
2021/04/26 06:25:49;;;;;;;1.17;1.10;;;;;;;17.51;33.21;93549.72;5068882;28;20035;-41
2021/04/26 06:28:15;;;;;;;0.45;0.32;;;;;;;16.65;32.98;93551.25;5088365;28;20144;-42
2021/04/26 06:30:43;;;;;;;0.68;0.68;;;;;;;17.16;34.64;93552.13;5088345;28;20027;-41
2021/04/26 06:33:14;;;;;;;0.30;0.30;;;;;;;17.26;32.35;93545.19;5087965;28;20017;-40
2021/04/26 06:35:40;;;;;;;0.20;0.20;;;;;;;16.61;34.13;93541.91;5088444;28;20420;-40
2021/04/26 06:38:06;;;;;;;1.00;1.00;;;;;;;17.30;33.45;93530.81;5088460;28;20477;-41
2021/04/26 06:40:31;;;;;;;6.40;2.10;;;;;;;17.94;31.51;93542.97;5088052;28;20052;-41
2021/04/26 06:42:57;;;;;;;0.17;0.17;;;;;;;17.50;31.27;93542.66;5087643;28;20020;-40
2021/04/26 06:45:23;;;;;;;0.30;0.30;;;;;;;18.51;32.68;93547.53;5087558;28;20020;-39
2021/04/26 06:47:52;;;;;;;0.60;0.60;;;;;;;19.84;29.03;93544.88;5087605;28;20027;-40
2021/04/26 06:50:18;;;;;;;0.38;0.38;;;;;;;19.54;28.84;93547.25;5069408;28;20030;-40
2021/04/26 06:52:47;;;;;;;0.35;0.35;;;;;;;20.76;27.60;93536.41;5067591;28;20032;-40
2021/04/26 06:55:13;;;;;;;0.40;0.40;;;;;;;20.65;26.98;93530.81;5067131;28;20556;-41
2021/04/26 06:57:39;;;;;;;1.15;0.90;;;;;;;22.17;25.88;93540.72;5067189;28;20017;-40
2021/04/26 07:00:05;;;;;;;0.50;0.40;;;;;;;23.30;22.93;93535.94;5067286;28;20032;-43
2021/04/26 07:02:31;;;;;;;0.65;0.65;;;;;;;24.13;22.47;93542.69;5071726;28;20297;-41
2021/04/26 07:04:56;;;;;;;0.75;0.70;;;;;;;24.67;21.92;93536.59;5079158;28;20045;-41
2021/04/26 07:07:23;;;;;;;0.28;0.28;;;;;;;24.72;21.81;93536.16;5080887;28;20052;-41
2021/04/26 07:09:48;;;;;;;0.40;0.40;;;;;;;23.74;22.05;93532.41;5075638;28;20034;-41
2021/04/26 07:12:13;;;;;;;0.65;0.65;;;;;;;23.40;23.23;93532.88;5087411;28;20024;-40
2021/04/26 07:27:30;;;;;;;0.57;0.50;;;;;;;27.68;20.03;93516.19;5125046;27;21217;-42
2021/04/26 07:29:55;;;;;;;0.52;0.52;;;;;;;29.16;18.88;93521.25;5125148;27;20045;-41
2021/04/26 07:32:21;;;;;;;0.45;0.45;;;;;;;29.66;18.02;93516.81;5125270;27;20027;-41
2021/04/26 07:34:46;;;;;;;0.80;0.80;;;;;;;30.62;16.83;93518.28;5105204;27;20028;-41
2021/04/26 07:37:12;;;;;;;0.68;0.68;;;;;;;31.15;16.58;93514.34;5115065;28;20030;-41
2021/04/26 07:39:37;;;;;;;0.28;0.28;;;;;;;31.31;16.11;93511.06;5125228;27;20031;-39
2021/04/26 07:42:03;;;;;;;0.65;0.50;;;;;;;31.90;14.63;93510.63;5125242;27;20099;-40
2021/04/26 07:44:29;;;;;;;0.40;0.20;;;;;;;32.05;14.17;93518.03;5124198;28;20033;-39
2021/04/26 07:46:55;;;;;;;0.20;0.20;;;;;;;32.44;14.27;93519.31;5125207;27;20030;-42
2021/04/26 07:49:21;;;;;;;0.60;0.47;;;;;;;32.89;13.64;93524.22;5125255;27;20032;-40
2021/04/26 07:51:46;;;;;;;1.08;1.00;;;;;;;32.19;14.07;93523.25;5111287;27;20045;-40
2021/04/26 07:54:12;;;;;;;1.95;1.42;;;;;;;32.62;14.62;93530.28;5124842;27;20057;-39
2021/04/26 07:56:37;;;;;;;0.73;0.60;;;;;;;32.42;14.80;93521.44;5124898;27;20020;-40
2021/04/26 07:59:03;;;;;;;0.80;0.80;;;;;;;32.99;14.43;93531.44;5123673;28;20027;-39
2021/04/26 08:01:29;;;;;;;0.85;0.85;;;;;;;33.51;14.09;93512.00;5125171;27;20023;-38
2021/04/26 08:03:54;;;;;;;0.85;0.52;;;;;;;33.70;13.38;93521.50;5124815;27;20027;-39
2021/04/26 08:06:20;;;;;;;0.25;0.25;;;;;;;32.71;13.72;93523.25;5124871;27;20016;-40
2021/04/26 08:08:46;;;;;;;0.40;0.40;;;;;;;33.16;14.00;93522.38;5124709;27;20495;-41
2021/04/26 08:11:11;;;;;;;0.40;0.40;;;;;;;32.65;14.21;93515.31;5125288;27;20031;-39
2021/04/26 08:13:37;;;;;;;0.60;0.60;;;;;;;32.73;14.52;93517.56;5114334;27;20573;-40
2021/04/26 08:16:03;;;;;;;1.00;0.60;;;;;;;33.40;14.09;93508.31;5104324;28;20031;-41
2021/04/26 08:18:29;;;;;;;0.30;0.30;;;;;;;32.85;13.18;93509.84;5104199;28;20061;-39
2021/04/26 08:20:54;;;;;;;2.08;0.90;;;;;;;33.45;13.40;93495.47;5103985;28;20043;-40
2021/04/26 08:23:20;;;;;;;0.30;0.20;;;;;;;33.05;14.04;93514.41;5104121;28;20113;-41
2021/04/26 08:25:45;;;;;;;3.50;0.95;;;;;;;32.58;13.21;93515.94;5103393;28;20040;-39
2021/04/26 08:28:13;;;;;;;1.65;0.80;;;;;;;31.81;13.25;93509.09;5091752;28;20066;-42
2021/04/26 08:30:39;;;;;;;0.75;0.70;;;;;;;32.20;13.74;93509.69;5090255;28;20099;-41
2021/04/26 08:33:05;;;;;;;0.57;0.57;;;;;;;31.64;15.17;93520.94;5090110;28;20028;-42
2021/04/26 08:35:30;;;;;;;0.43;0.43;;;;;;;32.99;13.49;93517.13;5089185;28;20028;-40
2021/04/26 08:37:55;;;;;;;0.98;0.88;;;;;;;32.68;12.47;93513.22;5090332;28;20032;-40
2021/04/26 08:40:21;;;;;;;0.77;0.45;;;;;;;32.10;14.19;93513.09;5090215;28;20026;-40
2021/04/26 08:42:46;;;;;;;0.60;0.60;;;;;;;33.00;13.75;93516.50;5090402;28;20039;-44
2021/04/26 08:45:12;;;;;;;1.13;1.08;;;;;;;33.54;11.28;93511.34;5090320;28;20035;-39
2021/04/26 08:47:39;;;;;;;0.40;0.32;;;;;;;32.80;12.99;93514.09;5090101;28;20024;-39
2021/04/26 08:50:06;;;;;;;0.40;0.40;;;;;;;32.86;13.53;93511.28;5089966;28;20411;-42
2021/04/26 08:52:31;;;;;;;0.35;0.35;;;;;;;33.36;12.37;93516.88;5089620;28;20028;-41
2021/04/26 08:54:57;;;;;;;0.63;0.60;;;;;;;33.14;12.20;93513.03;5089631;28;20028;-40
2021/04/26 08:57:23;;;;;;;4.60;0.77;;;;;;;33.70;12.88;93507.88;5089593;28;20085;-40
2021/04/26 08:59:48;;;;;;;1.10;0.50;;;;;;;33.29;13.76;93511.75;5095328;28;20020;-40
2021/04/26 09:02:14;;;;;;;0.82;0.63;;;;;;;33.85;13.30;93509.44;5101699;28;20027;-41
2021/04/26 09:05:02;;;;;;;1.30;0.20;;;;;;;34.47;13.37;93512.03;5100148;28;20035;-39
2021/04/26 09:07:28;;;;;;;0.52;0.52;;;;;;;34.58;12.86;93504.94;5103200;27;20023;-39
2021/04/26 09:09:53;;;;;;;0.95;0.88;;;;;;;34.02;13.72;93508.19;5094201;28;20035;-41
2021/04/26 09:12:22;;;;;;;0.95;0.60;;;;;;;33.71;13.92;93509.34;5095219;27;20024;-40
2021/04/26 09:14:55;;;;;;;0.40;0.40;;;;;;;34.06;13.68;93498.88;5092414;28;20043;-41
2021/04/26 09:17:27;;;;;;;0.65;0.65;;;;;;;33.99;13.53;93511.69;5090074;28;20040;-40
2021/04/26 09:19:55;;;;;;;0.20;0.20;;;;;;;34.64;12.61;93507.13;5089474;28;20036;-41
2021/04/26 09:22:40;;;;;;;1.10;0.50;;;;;;;34.49;13.27;93512.03;5088735;28;20031;-40
2021/04/26 09:25:41;;;;;;;0.55;0.55;;;;;;;35.41;11.58;93505.97;5097214;28;20024;-40
2021/04/26 09:28:11;;;;;;;0.50;0.50;;;;;;;34.88;12.64;93518.69;5071305;28;20101;-41
2021/04/26 09:30:38;;;;;;;0.50;0.40;;;;;;;35.02;12.89;93513.75;5103941;28;20055;-40
2021/04/26 09:33:22;;;;;;;0.43;0.43;;;;;;;34.84;13.03;93507.22;5089010;28;20063;-41
2021/04/26 09:36:05;;;;;;;0.80;0.55;;;;;;;34.58;12.69;93522.16;5088013;28;20404;-41
2021/04/26 09:38:42;;;;;;;0.40;0.40;;;;;;;35.33;11.30;93508.81;5088327;28;20050;-42
2021/04/26 09:41:19;;;;;;;0.55;0.55;;;;;;;35.37;12.01;93502.38;5088755;28;20016;-39
2021/04/26 09:43:52;;;;;;;0.40;0.40;;;;;;;34.36;12.56;93484.72;5088692;28;20032;-41
2021/04/26 09:46:19;;;;;;;0.52;0.52;;;;;;;34.86;10.54;93507.22;5088623;28;20077;-39
2021/04/26 09:48:46;;;;;;;0.52;0.50;;;;;;;34.71;12.31;93500.72;5088761;28;20056;-42
2021/04/26 09:51:21;;;;;;;0.73;0.68;;;;;;;35.06;11.46;93505.16;5088839;28;20031;-41
2021/04/26 09:53:55;;;;;;;0.30;0.30;;;;;;;34.80;11.68;93498.59;5088398;28;20027;-42
2021/04/26 09:56:20;;;;;;;0.73;0.63;;;;;;;34.21;12.54;93506.88;5109023;28;20034;-42
2021/04/26 09:58:54;;;;;;;0.73;0.63;;;;;;;33.30;12.93;93502.50;5109372;28;20032;-40
2021/04/26 10:01:20;;;;;;;0.30;0.30;;;;;;;33.54;14.19;93479.13;5092760;28;20035;-40
2021/04/26 10:03:46;;;;;;;0.20;0.20;;;;;;;33.46;12.19;93487.63;5088560;28;20016;-42
2021/04/26 10:06:13;;;;;;;0.73;0.47;;;;;;;31.04;12.57;93489.91;5088430;28;20016;-41
2021/04/26 10:08:39;;;;;;;0.30;0.30;;;;;;;30.33;13.80;93487.03;5088479;28;20081;-40
2021/04/26 10:11:05;;;;;;;0.28;0.28;;;;;;;31.46;14.30;93477.81;5087208;28;20458;-40
2021/04/26 10:13:32;;;;;;;0.60;0.60;;;;;;;31.92;12.82;93484.97;5087078;28;20024;-42
2021/04/26 10:16:03;;;;;;;0.60;0.60;;;;;;;32.03;12.93;93483.72;5087051;28;20043;-40
2021/04/26 10:18:41;;;;;;;0.35;0.35;;;;;;;32.32;13.93;93484.13;5107357;28;20035;-40
2021/04/26 10:21:18;;;;;;;0.47;0.30;;;;;;;32.83;11.25;93475.50;5107519;28;20408;-41
2021/04/26 10:23:50;;;;;;;0.40;0.40;;;;;;;33.02;14.39;93481.44;5106139;28;20552;-41
2021/04/26 10:26:37;;;;;;;0.25;0.25;;;;;;;34.00;11.22;93478.75;5088010;28;20047;-42
2021/04/26 10:29:11;;;;;;;1.05;0.68;;;;;;;34.51;10.19;93471.22;5088167;28;20480;-41
2021/04/26 10:32:15;;;;;;;0.75;0.73;;;;;;;33.70;9.74;93470.66;5090617;28;20028;-40
2021/04/26 10:34:43;;;;;;;0.55;0.30;;;;;;;33.47;10.72;93466.88;5076136;28;20529;-40
2021/04/26 10:37:15;;;;;;;3.30;1.38;;;;;;;34.17;11.67;93466.72;5090250;28;20034;-43
2021/04/26 10:40:03;;;;;;;1.10;0.93;;;;;;;33.46;11.66;93464.72;5110380;28;20522;-40
2021/04/26 10:42:33;;;;;;;0.80;0.75;;;;;;;32.59;12.35;93457.34;5110582;28;20507;-41
2021/04/26 10:44:59;;;;;;;0.52;0.50;;;;;;;30.80;13.15;93455.22;5110691;28;20053;-42
2021/04/26 10:47:37;;;;;;;0.85;0.60;;;;;;;29.88;14.71;93454.75;5103068;28;20035;-42
2021/04/26 10:50:04;;;;;;;0.45;0.45;;;;;;;28.98;14.54;93443.97;5098881;28;20448;-38
2021/04/26 10:52:30;;;;;;;0.73;0.73;;;;;;;29.64;14.39;93442.78;5089206;28;20466;-39
2021/04/26 10:55:19;;;;;;;0.93;0.63;;;;;;;30.35;14.43;93430.09;5099247;28;20031;-40
2021/04/26 10:57:48;;;;;;;0.68;0.68;;;;;;;29.95;13.06;93429.97;5087906;28;20040;-43
2021/04/26 11:00:22;;;;;;;0.68;0.50;;;;;;;29.75;13.46;93423.84;5094793;28;20083;-42
2021/04/26 11:03:11;;;;;;;0.30;0.30;;;;;;;30.58;14.57;93429.16;5107833;28;20122;-40
2021/04/26 11:05:45;;;;;;;0.30;0.30;;;;;;;30.54;13.56;93423.34;5089991;28;20050;-38
2021/04/26 11:08:50;;;;;;;0.70;0.65;;;;;;;30.93;13.38;93425.53;5107020;28;20088;-37
2021/04/26 11:11:28;;;;;;;1.00;0.88;;;;;;;30.32;13.71;93422.94;5090673;28;20043;-38
2021/04/26 11:13:58;;;;;;;0.30;0.30;;;;;;;29.65;12.82;93415.75;5099771;28;20080;-38
2021/04/26 11:16:32;;;;;;;1.90;1.00;;;;;;;30.46;13.89;93418.25;5108076;28;20028;-37
2021/04/26 11:18:58;;;;;;;0.57;0.20;;;;;;;30.23;16.01;93413.50;5108485;28;20107;-37
2021/04/26 11:21:42;;;;;;;0.82;0.60;;;;;;;29.54;13.94;93414.09;5107882;28;20468;-38
2021/04/26 11:24:09;;;;;;;0.47;0.30;;;;;;;27.70;13.52;93416.97;5107338;28;20031;-37
2021/04/26 11:26:34;;;;;;;0.95;0.57;;;;;;;27.79;15.02;93415.09;5107300;28;20477;-38
2021/04/26 11:29:05;;;;;;;0.30;0.30;;;;;;;26.71;14.13;93406.66;5092906;28;20039;-40
2021/04/26 11:31:45;;;;;;;0.30;0.30;;;;;;;26.02;17.39;93397.88;5087572;28;20165;-39
2021/04/26 11:34:14;;;;;;;0.15;0.15;;;;;;;26.38;18.25;93399.16;5087219;28;20874;-40
2021/04/26 11:36:40;;;;;;;;;;;;;;;26.86;18.83;93400.09;5087598;28;20484;-39
2021/04/26 11:39:08;;;;;;;0.45;0.45;;;;;;;27.11;17.10;93395.94;5087074;28;20014;-39
2021/04/26 11:41:46;;;;;;;0.20;0.20;;;;;;;27.32;16.52;93392.34;5087161;28;20028;-39
2021/04/26 11:44:11;;;;;;;1.17;0.65;;;;;;;27.16;16.81;93377.69;5087193;28;20516;-40
2021/04/26 11:46:37;;;;;;;0.13;0.13;;;;;;;26.43;14.91;93372.44;5087197;28;20025;-40
2021/04/26 11:49:13;;;;;;;0.93;0.82;;;;;;;26.06;16.18;93387.41;5085998;28;20085;-40
2021/04/26 11:51:38;;;;;;;0.43;0.43;;;;;;;26.21;17.40;93380.16;5086974;28;20035;-40
2021/04/26 11:54:18;;;;;;;0.45;0.45;;;;;;;26.29;14.53;93378.34;5087000;28;20744;-41
2021/04/26 11:57:20;;;;;;;0.52;0.52;;;;;;;25.82;13.70;93366.00;5086765;28;20512;-40